Maldives Meteorological Service

METAR

Station
VRMM
METAR VRMM 291000Z 27009KT 9999 FEW018TCU BKN270 31/26 Q1008 NOSIG=
VRMH
METAR VRMH 291000Z 27006KT 9999 FEW018 31/26 Q1008=
VRMK
METAR VRMK 291000Z 26004KT 9999 FEW018 32/26 Q1008=
VRMT
METAR VRMT 291000Z 29005KT 9999 SCT018TCU 31/24 Q1008=
VRMG
METAR VRMG 291000Z 27006KT 9999 FEW018 31/24 Q1008 NOSIG=
Last Updated : 2017-06-29 15:01:03

SPECI

Station
VRMM
VRMH
VRMK
VRMT
VRMG
Last Updated : 2017-06-29 15:01:03